Terminal Aerodrome Forecast
Issued by NWS

Home | Current Version | Previous Version | Text Only | Print | Product List | Glossary On
Versions: 1 2 3 4 5 6 7 8 9 10 11 12 13 14 15
000
FTUS42 KRAH 240533
TAFINT
TAF
KINT 240533Z 2406/2506 21003KT P6SM SKC
     FM241600 18005KT P6SM SCT060
     FM250200 20004KT P6SM FEW250=

USA.gov is the U.S. government's official web portal to all federal, state and local government web resources and services.